Terminal Aerodrome Forecast
Issued by NWS

Home | Current Version | Previous Version | Text Only | Print | Product List | Glossary On
Versions: 1 2 3 4 5 6 7 8 9 10 11 12 13 14
992
FTUS44 KBMX 261739
TAFTCL
TAF
KTCL 261739Z 2618/2718 13005KT P6SM SCT050
     FM262200 15007KT P6SM VCTS SCT050CB
     FM270200 17006KT P6SM BKN250
     FM271100 15005KT P6SM BKN015=

USA.gov is the U.S. government's official web portal to all federal, state and local government web resources and services.